createdAt,value
2022-07-30T00:01:36.040Z,16.15
2022-07-30T00:04:02.816Z,16.06
2022-07-30T00:06:29.255Z,15.99
2022-07-30T00:08:55.618Z,15.92
2022-07-30T00:11:25.910Z,15.86
2022-07-30T00:13:54.197Z,15.79
2022-07-30T00:16:20.658Z,15.74
2022-07-30T00:18:46.994Z,15.69
2022-07-30T00:21:20.197Z,15.69
2022-07-30T00:24:02.302Z,15.69
2022-07-30T00:26:28.853Z,15.67
2022-07-30T00:28:55.178Z,15.65
2022-07-30T00:31:21.549Z,15.61
2022-07-30T00:33:47.892Z,15.60
2022-07-30T00:36:14.292Z,15.60
2022-07-30T00:38:40.610Z,15.63
2022-07-30T00:41:06.928Z,15.67
2022-07-30T00:43:33.373Z,15.71
2022-07-30T00:45:59.725Z,15.76
2022-07-30T00:48:26.120Z,15.77
2022-07-30T00:50:52.424Z,15.82
2022-07-30T00:53:18.758Z,15.80
2022-07-30T00:55:45.096Z,15.79
2022-07-30T00:58:11.434Z,15.77
2022-07-30T01:00:37.960Z,15.78
2022-07-30T01:03:04.803Z,15.72
2022-07-30T01:05:31.303Z,15.71
2022-07-30T01:07:57.611Z,15.68
2022-07-30T01:10:24.172Z,15.67
2022-07-30T01:12:52.663Z,15.65
2022-07-30T01:15:19.569Z,15.66
2022-07-30T01:17:49.868Z,15.66
2022-07-30T01:20:23.061Z,15.67
2022-07-30T01:23:08.079Z,15.69
2022-07-30T01:25:49.346Z,15.72
2022-07-30T01:28:18.605Z,15.72
2022-07-30T01:30:45.591Z,15.75
2022-07-30T01:33:14.312Z,15.78
2022-07-30T01:35:41.915Z,15.80
2022-07-30T01:38:11.242Z,15.76
2022-07-30T01:40:38.564Z,15.75
2022-07-30T01:43:06.419Z,15.72
2022-07-30T01:45:41.355Z,15.70
2022-07-30T01:48:09.694Z,15.68
2022-07-30T01:50:36.812Z,15.66
2022-07-30T01:53:03.245Z,15.65
2022-07-30T01:55:34.579Z,15.65
2022-07-30T01:58:01.833Z,15.63
2022-07-30T02:00:30.928Z,15.63
2022-07-30T02:02:58.065Z,15.63
2022-07-30T02:05:24.596Z,15.59
2022-07-30T02:08:09.540Z,15.56
2022-07-30T02:10:44.066Z,15.54
2022-07-30T02:13:11.659Z,15.52
2022-07-30T02:15:59.405Z,15.49
2022-07-30T02:18:32.763Z,15.48
2022-07-30T02:21:07.195Z,15.49
2022-07-30T02:23:39.914Z,15.48
2022-07-30T02:26:08.521Z,15.49
2022-07-30T02:28:36.911Z,15.51
2022-07-30T02:31:03.685Z,15.54
2022-07-30T02:33:48.452Z,15.57
2022-07-30T02:36:15.801Z,15.56
2022-07-30T02:38:43.744Z,15.55
2022-07-30T02:41:12.075Z,15.53
2022-07-30T02:43:40.298Z,15.52
2022-07-30T02:46:07.362Z,15.52
2022-07-30T02:48:35.586Z,15.51
2022-07-30T02:51:03.007Z,15.48
2022-07-30T02:53:30.303Z,15.43
2022-07-30T02:55:56.942Z,15.40
2022-07-30T02:58:25.203Z,15.37
2022-07-30T03:00:53.757Z,15.37
2022-07-30T03:03:20.560Z,15.41
2022-07-30T03:05:49.812Z,15.44
2022-07-30T03:08:19.973Z,15.49
2022-07-30T03:10:47.251Z,15.52
2022-07-30T03:13:14.731Z,15.54
2022-07-30T03:15:49.048Z,15.56
2022-07-30T03:18:16.712Z,15.58
2022-07-30T03:20:45.521Z,15.58
2022-07-30T03:23:12.390Z,15.59
2022-07-30T03:25:39.899Z,15.56
2022-07-30T03:28:06.830Z,15.52
2022-07-30T03:30:34.398Z,15.47
2022-07-30T03:33:01.256Z,15.41
2022-07-30T03:35:31.116Z,15.36
2022-07-30T03:37:58.798Z,15.33
2022-07-30T03:40:25.825Z,15.31
2022-07-30T03:42:52.408Z,15.33
2022-07-30T03:45:19.003Z,15.35
2022-07-30T03:47:46.474Z,15.39
2022-07-30T03:50:13.695Z,15.41
2022-07-30T03:52:41.024Z,15.45
2022-07-30T03:55:08.727Z,15.46
2022-07-30T03:57:35.159Z,15.48
2022-07-30T04:00:02.101Z,15.48
2022-07-30T04:02:28.456Z,15.49
2022-07-30T04:04:54.773Z,15.51
2022-07-30T04:07:21.106Z,15.52
2022-07-30T04:09:47.451Z,15.53
2022-07-30T04:12:13.864Z,15.56
2022-07-30T04:14:41.719Z,15.59
2022-07-30T04:17:11.890Z,15.65
2022-07-30T04:19:48.109Z,15.69
2022-07-30T04:22:16.683Z,15.71
2022-07-30T04:24:44.146Z,15.71
2022-07-30T04:27:11.245Z,15.72
2022-07-30T04:29:37.678Z,15.77
2022-07-30T04:32:04.260Z,15.77
2022-07-30T04:34:30.597Z,15.79
2022-07-30T04:36:56.898Z,15.83
2022-07-30T04:39:23.486Z,15.87
2022-07-30T04:41:50.264Z,15.88
2022-07-30T04:44:19.978Z,15.86
2022-07-30T04:46:46.967Z,15.88
2022-07-30T04:49:14.260Z,15.87
2022-07-30T04:51:40.965Z,15.88
2022-07-30T04:54:15.711Z,15.87
2022-07-30T04:56:52.521Z,15.85
2022-07-30T04:59:21.662Z,15.83
2022-07-30T05:01:49.814Z,15.82
2022-07-30T05:04:16.605Z,15.84
2022-07-30T05:06:43.784Z,15.90
2022-07-30T05:09:10.649Z,15.93
2022-07-30T05:11:36.941Z,15.97
2022-07-30T05:14:03.281Z,15.99
2022-07-30T05:16:29.808Z,16.05
2022-07-30T05:18:56.154Z,16.10
2022-07-30T05:21:22.958Z,16.18
2022-07-30T05:23:50.091Z,16.31
2022-07-30T05:26:20.760Z,16.39
2022-07-30T05:28:50.802Z,16.47
2022-07-30T05:31:18.541Z,16.52
2022-07-30T05:33:44.877Z,16.52
2022-07-30T05:36:11.244Z,16.49
2022-07-30T05:38:37.820Z,16.48
2022-07-30T05:41:04.153Z,16.50
2022-07-30T05:43:48.232Z,16.63
2022-07-30T05:46:22.303Z,16.76
2022-07-30T05:48:49.000Z,16.87
2022-07-30T05:51:15.373Z,16.97
2022-07-30T05:53:41.683Z,17.11
2022-07-30T05:56:08.129Z,17.24
2022-07-30T05:58:35.796Z,17.32
2022-07-30T06:01:02.131Z,17.50
2022-07-30T06:03:28.448Z,17.69
2022-07-30T06:05:54.789Z,17.86
2022-07-30T06:08:21.109Z,18.01
2022-07-30T06:10:47.455Z,18.14
2022-07-30T06:13:13.827Z,18.36
2022-07-30T06:15:40.254Z,18.46
2022-07-30T06:18:06.581Z,18.49
2022-07-30T06:20:33.140Z,18.52
2022-07-30T06:22:59.611Z,18.58
2022-07-30T06:25:25.947Z,18.68
2022-07-30T06:27:52.477Z,18.66
2022-07-30T06:30:18.809Z,18.58
2022-07-30T06:32:45.705Z,18.52
2022-07-30T06:35:15.280Z,18.50
2022-07-30T06:38:00.782Z,18.62
2022-07-30T06:40:29.535Z,18.59
2022-07-30T06:42:55.917Z,18.53
2022-07-30T06:45:22.231Z,18.63
2022-07-30T06:47:48.543Z,18.54
2022-07-30T06:50:15.676Z,18.57
2022-07-30T06:52:42.027Z,18.59
2022-07-30T06:55:08.393Z,18.54
2022-07-30T06:57:38.798Z,18.62
2022-07-30T07:00:09.087Z,18.67
2022-07-30T07:02:35.861Z,18.67
2022-07-30T07:05:02.238Z,18.64
2022-07-30T07:07:41.217Z,18.56
2022-07-30T07:10:09.826Z,18.63
2022-07-30T07:12:36.292Z,18.54
2022-07-30T07:15:02.627Z,18.51
2022-07-30T07:17:29.040Z,18.47
2022-07-30T07:20:00.103Z,18.50
2022-07-30T07:22:28.741Z,18.52
2022-07-30T07:24:55.139Z,18.72
2022-07-30T07:27:21.567Z,19.06
2022-07-30T07:30:01.374Z,19.27
2022-07-30T07:32:32.174Z,19.46
2022-07-30T07:34:58.470Z,19.63
2022-07-30T07:37:24.810Z,19.67
2022-07-30T07:39:51.113Z,19.74
2022-07-30T07:42:17.448Z,19.77
2022-07-30T07:44:43.811Z,19.63
2022-07-30T07:47:10.111Z,19.77
2022-07-30T07:49:36.422Z,19.87
2022-07-30T07:52:02.742Z,20.06
2022-07-30T07:54:29.064Z,20.29
2022-07-30T07:56:58.696Z,20.37
2022-07-30T07:59:35.950Z,20.46
2022-07-30T08:02:08.103Z,20.33
2022-07-30T08:04:34.854Z,20.38
2022-07-30T08:07:01.552Z,20.44
2022-07-30T08:09:28.088Z,20.60
2022-07-30T08:12:11.004Z,20.96
2022-07-30T08:14:37.326Z,21.40
2022-07-30T08:17:04.486Z,21.78
2022-07-30T08:19:31.062Z,22.25
2022-07-30T08:21:59.397Z,22.55
2022-07-30T08:24:26.129Z,22.56
2022-07-30T08:26:52.439Z,22.72
2022-07-30T08:29:18.755Z,22.95
2022-07-30T08:31:45.070Z,23.35
2022-07-30T08:34:11.397Z,23.81
2022-07-30T08:36:37.730Z,24.03
2022-07-30T08:39:04.070Z,24.44
2022-07-30T08:41:30.727Z,24.02
2022-07-30T08:43:59.880Z,23.91
2022-07-30T08:46:27.550Z,23.69
2022-07-30T08:48:54.128Z,23.80
2022-07-30T08:51:20.657Z,23.68
2022-07-30T08:53:47.251Z,23.55
2022-07-30T08:56:13.646Z,23.61
2022-07-30T08:58:41.502Z,23.47
2022-07-30T09:01:07.953Z,23.63
2022-07-30T09:03:35.038Z,23.69
2022-07-30T09:06:02.285Z,23.69
2022-07-30T09:08:28.703Z,23.81
2022-07-30T09:10:55.024Z,23.98
2022-07-30T09:13:32.336Z,23.84
2022-07-30T09:15:58.908Z,23.97
2022-07-30T09:18:29.625Z,24.06
2022-07-30T09:20:56.466Z,24.01
2022-07-30T09:23:22.811Z,23.87
2022-07-30T09:25:49.836Z,23.77
2022-07-30T09:28:17.056Z,23.81
2022-07-30T09:30:45.499Z,23.80
2022-07-30T09:33:12.313Z,23.81
2022-07-30T09:35:39.405Z,23.83
2022-07-30T09:38:06.758Z,23.65
2022-07-30T09:40:33.755Z,23.75
2022-07-30T09:43:04.634Z,23.72
2022-07-30T09:45:34.639Z,23.83
2022-07-30T09:48:01.840Z,23.91
2022-07-30T09:50:29.976Z,24.04
2022-07-30T09:53:06.435Z,24.09
2022-07-30T09:55:33.816Z,24.11
2022-07-30T09:58:04.274Z,24.13
2022-07-30T10:00:31.835Z,24.25
2022-07-30T10:03:00.364Z,24.19
2022-07-30T10:05:38.812Z,24.07
2022-07-30T10:08:09.246Z,24.11
2022-07-30T10:10:47.160Z,24.23
2022-07-30T10:13:20.785Z,24.19
2022-07-30T10:15:49.363Z,24.20
2022-07-30T10:18:16.061Z,24.21
2022-07-30T10:20:44.697Z,24.23
2022-07-30T10:23:15.831Z,24.27
2022-07-30T10:25:54.583Z,24.36
2022-07-30T10:28:22.498Z,24.59
2022-07-30T10:30:51.214Z,24.61
2022-07-30T10:33:37.475Z,24.63
2022-07-30T10:36:04.528Z,24.75
2022-07-30T10:38:33.144Z,24.77
2022-07-30T10:41:08.692Z,24.67
2022-07-30T10:43:45.331Z,24.65
2022-07-30T10:46:30.184Z,24.59
2022-07-30T10:49:12.671Z,24.77
2022-07-30T10:51:50.038Z,24.86
2022-07-30T10:54:36.559Z,24.73
2022-07-30T10:57:14.873Z,24.83
2022-07-30T11:00:01.212Z,24.82
2022-07-30T11:02:34.811Z,24.79
2022-07-30T11:05:37.529Z,25.05
2022-07-30T11:08:31.751Z,25.10
2022-07-30T11:10:58.991Z,25.14
2022-07-30T11:13:56.199Z,25.07
2022-07-30T11:16:42.875Z,24.98
2022-07-30T11:19:55.752Z,24.89
2022-07-30T11:22:22.597Z,24.94
2022-07-30T11:24:49.557Z,25.08
2022-07-30T11:27:36.246Z,24.99
2022-07-30T11:30:03.435Z,25.10
2022-07-30T11:32:32.037Z,25.17
2022-07-30T11:35:17.176Z,25.30
2022-07-30T11:38:00.906Z,25.41
2022-07-30T11:40:35.932Z,25.55
2022-07-30T11:43:20.360Z,25.62
2022-07-30T11:46:12.378Z,25.48
2022-07-30T11:48:44.491Z,25.45
2022-07-30T11:51:10.924Z,25.23
2022-07-30T11:53:37.406Z,25.09
2022-07-30T11:56:03.843Z,25.45
2022-07-30T11:58:32.166Z,26.35
2022-07-30T12:01:01.625Z,26.58
2022-07-30T12:03:29.882Z,26.55
2022-07-30T12:05:56.426Z,26.56
2022-07-30T12:08:35.271Z,26.42
2022-07-30T12:11:02.757Z,25.98
2022-07-30T12:13:44.292Z,25.68
2022-07-30T12:16:12.879Z,25.75
2022-07-30T12:18:39.361Z,26.11
2022-07-30T12:21:11.902Z,26.96
2022-07-30T12:23:38.811Z,27.11
2022-07-30T12:26:05.344Z,27.34
2022-07-30T12:28:33.106Z,27.73
2022-07-30T12:31:00.564Z,28.27
2022-07-30T12:33:26.955Z,28.11
2022-07-30T12:35:54.254Z,27.79
2022-07-30T12:38:21.288Z,27.07
2022-07-30T12:40:54.944Z,26.67
2022-07-30T12:43:40.260Z,26.39
2022-07-30T12:46:06.595Z,26.41
2022-07-30T12:48:32.950Z,27.15
2022-07-30T12:51:07.653Z,28.33
2022-07-30T12:53:34.686Z,29.78
2022-07-30T12:56:18.503Z,31.22
2022-07-30T12:58:45.302Z,32.00
2022-07-30T13:01:12.552Z,32.23
2022-07-30T13:03:39.438Z,31.93
2022-07-30T13:06:13.415Z,31.86
2022-07-30T13:08:45.862Z,32.54
2022-07-30T13:11:12.303Z,32.89
2022-07-30T13:13:38.641Z,32.85
2022-07-30T13:16:05.951Z,32.68
2022-07-30T13:18:33.312Z,32.11
2022-07-30T13:21:00.308Z,32.15
2022-07-30T13:23:30.046Z,31.77
2022-07-30T13:25:57.022Z,30.72
2022-07-30T13:28:23.339Z,30.55
2022-07-30T13:30:49.648Z,30.20
2022-07-30T13:33:15.962Z,29.29
2022-07-30T13:35:42.289Z,28.23
2022-07-30T13:38:09.395Z,27.92
2022-07-30T13:40:37.072Z,27.41
2022-07-30T13:43:03.497Z,27.00
2022-07-30T13:45:30.219Z,26.70
2022-07-30T13:47:56.754Z,26.38
2022-07-30T13:50:23.084Z,26.20
2022-07-30T13:52:49.480Z,25.87
2022-07-30T13:55:15.888Z,25.81
2022-07-30T13:57:45.051Z,25.67
2022-07-30T14:00:12.608Z,25.53
2022-07-30T14:02:39.224Z,25.33
2022-07-30T14:05:07.147Z,25.20
2022-07-30T14:07:34.131Z,25.15
2022-07-30T14:10:00.509Z,25.04
2022-07-30T14:12:26.811Z,25.03
2022-07-30T14:14:53.140Z,24.95
2022-07-30T14:17:19.502Z,24.82
2022-07-30T14:19:45.815Z,24.77
2022-07-30T14:22:12.112Z,24.78
2022-07-30T14:24:38.399Z,24.79
2022-07-30T14:27:05.417Z,24.70
2022-07-30T14:29:32.031Z,24.63
2022-07-30T14:31:58.448Z,24.55
2022-07-30T14:34:25.009Z,24.57
2022-07-30T14:36:51.320Z,24.56
2022-07-30T14:39:17.652Z,24.52
2022-07-30T14:41:43.981Z,24.44
2022-07-30T14:44:12.263Z,24.36
2022-07-30T14:46:38.855Z,24.17
2022-07-30T14:49:19.510Z,24.01
2022-07-30T14:51:46.044Z,23.84
2022-07-30T14:54:12.388Z,23.69
2022-07-30T14:56:38.862Z,23.57
2022-07-30T14:59:05.345Z,23.44
2022-07-30T15:01:31.790Z,23.33
2022-07-30T15:03:58.766Z,23.26
2022-07-30T15:06:25.831Z,23.17
2022-07-30T15:08:52.899Z,23.09
2022-07-30T15:11:19.325Z,22.90
2022-07-30T15:13:50.014Z,22.82
2022-07-30T15:16:17.423Z,22.84
2022-07-30T15:18:43.739Z,22.78
2022-07-30T15:21:10.364Z,22.79
2022-07-30T15:23:36.674Z,22.77
2022-07-30T15:26:03.206Z,22.71
2022-07-30T15:28:29.566Z,22.68
2022-07-30T15:30:58.132Z,22.77
2022-07-30T15:33:24.458Z,22.84
2022-07-30T15:35:50.794Z,22.93
2022-07-30T15:38:17.279Z,23.07
2022-07-30T15:40:43.734Z,23.21
2022-07-30T15:43:10.420Z,23.38
2022-07-30T15:45:50.976Z,23.70
2022-07-30T15:48:26.849Z,24.09
2022-07-30T15:50:59.548Z,24.43
2022-07-30T15:53:25.872Z,24.51
2022-07-30T15:55:52.189Z,24.59
2022-07-30T15:58:18.674Z,24.61
2022-07-30T16:00:45.044Z,24.62
2022-07-30T16:03:11.379Z,24.74
2022-07-30T16:05:51.228Z,24.97
2022-07-30T16:08:18.143Z,25.24
2022-07-30T16:10:44.469Z,25.40
2022-07-30T16:13:10.823Z,25.42
2022-07-30T16:15:37.152Z,25.53
2022-07-30T16:18:04.389Z,25.50
2022-07-30T16:20:31.351Z,25.34
2022-07-30T16:22:57.785Z,25.41
2022-07-30T16:25:24.239Z,25.56
2022-07-30T16:27:50.612Z,25.81
2022-07-30T16:30:16.947Z,25.97
2022-07-30T16:32:43.242Z,26.20
2022-07-30T16:35:13.132Z,26.54
2022-07-30T16:37:39.833Z,26.73
2022-07-30T16:40:06.303Z,26.95
2022-07-30T16:42:32.599Z,27.21
2022-07-30T16:44:59.125Z,27.00
2022-07-30T16:47:25.481Z,26.72
2022-07-30T16:49:51.854Z,26.36
2022-07-30T16:52:18.342Z,26.11
2022-07-30T16:54:44.730Z,25.73
2022-07-30T16:57:11.034Z,25.48
2022-07-30T16:59:37.634Z,25.19
2022-07-30T17:02:04.460Z,24.95
2022-07-30T17:04:31.026Z,24.77
2022-07-30T17:06:57.390Z,24.56
2022-07-30T17:09:23.683Z,24.50
2022-07-30T17:11:52.209Z,24.46
2022-07-30T17:14:19.351Z,24.47
2022-07-30T17:16:45.677Z,24.58
2022-07-30T17:19:12.235Z,24.63
2022-07-30T17:21:38.595Z,24.81
2022-07-30T17:24:10.949Z,24.99
2022-07-30T17:26:40.257Z,24.98
2022-07-30T17:29:10.788Z,24.87
2022-07-30T17:31:42.054Z,24.73
2022-07-30T17:34:09.077Z,24.49
2022-07-30T17:36:36.380Z,24.33
2022-07-30T17:39:03.385Z,24.13
2022-07-30T17:41:29.767Z,24.02
2022-07-30T17:43:56.662Z,23.93
2022-07-30T17:46:23.274Z,23.85
2022-07-30T17:48:49.778Z,23.73
2022-07-30T17:51:16.372Z,23.60
2022-07-30T17:53:42.978Z,23.51
2022-07-30T17:56:26.954Z,23.49
2022-07-30T17:58:53.615Z,23.38
2022-07-30T18:01:19.956Z,23.31
2022-07-30T18:03:46.278Z,23.22
2022-07-30T18:06:12.624Z,23.12
2022-07-30T18:08:38.976Z,23.03
2022-07-30T18:11:05.286Z,22.92
2022-07-30T18:13:31.676Z,22.86
2022-07-30T18:15:58.229Z,22.79
2022-07-30T18:18:24.618Z,22.80
2022-07-30T18:20:51.019Z,22.75
2022-07-30T18:23:19.110Z,22.70
2022-07-30T18:25:52.005Z,22.62
2022-07-30T18:28:21.242Z,22.54
2022-07-30T18:30:47.995Z,22.49
2022-07-30T18:33:15.245Z,22.38
2022-07-30T18:35:41.742Z,22.30
2022-07-30T18:38:08.058Z,22.22
2022-07-30T18:40:34.396Z,22.05
2022-07-30T18:43:00.775Z,21.94
2022-07-30T18:45:28.506Z,21.79
2022-07-30T18:47:55.727Z,21.65
2022-07-30T18:50:22.745Z,21.52
2022-07-30T18:52:49.249Z,21.45
2022-07-30T18:55:17.282Z,21.33
2022-07-30T18:57:43.948Z,21.28
2022-07-30T19:00:31.097Z,21.24
2022-07-30T19:02:59.471Z,21.19
2022-07-30T19:05:27.594Z,21.06
2022-07-30T19:07:57.632Z,20.96
2022-07-30T19:10:26.124Z,20.78
2022-07-30T19:12:53.292Z,20.65
2022-07-30T19:15:19.675Z,20.50
2022-07-30T19:17:47.076Z,20.39
2022-07-30T19:20:13.518Z,20.32
2022-07-30T19:22:40.499Z,20.33
2022-07-30T19:25:07.947Z,20.35
2022-07-30T19:27:34.492Z,20.37
2022-07-30T19:30:00.815Z,20.35
2022-07-30T19:32:27.281Z,20.28
2022-07-30T19:34:53.985Z,20.20
2022-07-30T19:37:20.373Z,20.10
2022-07-30T19:40:05.087Z,20.04
2022-07-30T19:42:33.841Z,20.04
2022-07-30T19:45:01.202Z,20.05
2022-07-30T19:47:28.165Z,20.02
2022-07-30T19:50:04.946Z,19.97
2022-07-30T19:52:31.815Z,19.92
2022-07-30T19:54:58.511Z,19.86
2022-07-30T19:57:25.007Z,19.85
2022-07-30T20:00:11.549Z,19.91
2022-07-30T20:02:38.234Z,19.96
2022-07-30T20:05:06.241Z,19.99
2022-07-30T20:07:41.505Z,20.05
2022-07-30T20:10:11.168Z,20.05
2022-07-30T20:12:40.283Z,20.05
2022-07-30T20:15:13.698Z,20.02
2022-07-30T20:17:41.399Z,19.93
2022-07-30T20:20:09.120Z,19.83
2022-07-30T20:22:35.456Z,19.77
2022-07-30T20:25:02.514Z,19.67
2022-07-30T20:27:35.995Z,19.59
2022-07-30T20:30:05.168Z,19.57
2022-07-30T20:32:31.509Z,19.57
2022-07-30T20:34:58.285Z,19.55
2022-07-30T20:37:24.798Z,19.52
2022-07-30T20:39:54.793Z,19.49
2022-07-30T20:42:21.754Z,19.42
2022-07-30T20:44:50.666Z,19.33
2022-07-30T20:47:34.428Z,19.24
2022-07-30T20:50:05.337Z,19.14
2022-07-30T20:52:36.063Z,19.06
2022-07-30T20:55:03.214Z,19.01
2022-07-30T20:57:44.249Z,18.90
2022-07-30T21:00:18.653Z,18.79
2022-07-30T21:02:46.660Z,18.72
2022-07-30T21:05:19.987Z,18.65
2022-07-30T21:07:46.866Z,18.55
2022-07-30T21:10:13.279Z,18.47
2022-07-30T21:12:41.229Z,18.43
2022-07-30T21:15:23.067Z,18.41
2022-07-30T21:17:50.901Z,18.41
2022-07-30T21:20:17.420Z,18.40
2022-07-30T21:22:54.610Z,18.38
2022-07-30T21:25:21.609Z,18.30
2022-07-30T21:27:50.016Z,18.25
2022-07-30T21:30:16.718Z,18.23
2022-07-30T21:32:43.456Z,18.19
2022-07-30T21:35:11.853Z,18.16
2022-07-30T21:37:38.226Z,18.13
2022-07-30T21:40:09.759Z,18.12
2022-07-30T21:42:36.067Z,18.10
2022-07-30T21:45:14.728Z,18.07
2022-07-30T21:47:41.894Z,18.01
2022-07-30T21:50:14.776Z,17.98
2022-07-30T21:52:42.849Z,17.92
2022-07-30T21:55:13.426Z,17.89
2022-07-30T21:57:40.118Z,17.84
2022-07-30T22:00:09.647Z,17.79
2022-07-30T22:02:37.190Z,17.74
2022-07-30T22:05:03.547Z,17.71
2022-07-30T22:07:30.547Z,17.68
2022-07-30T22:09:57.217Z,17.64
2022-07-30T22:15:10.038Z,17.61
2022-07-30T22:17:58.367Z,17.59
2022-07-30T22:20:27.699Z,17.59
2022-07-30T22:22:58.236Z,17.59
2022-07-30T22:25:24.646Z,17.58
2022-07-30T22:28:08.180Z,17.54
2022-07-30T22:30:34.536Z,17.49
2022-07-30T22:33:14.258Z,17.46
2022-07-30T22:35:46.702Z,17.43
2022-07-30T22:38:16.651Z,17.40
2022-07-30T22:40:45.900Z,17.36
2022-07-30T22:43:12.968Z,17.32
2022-07-30T22:45:49.213Z,17.26
2022-07-30T22:48:16.715Z,17.22
2022-07-30T22:50:43.068Z,17.16
2022-07-30T22:53:23.517Z,17.10
2022-07-30T22:55:56.039Z,17.04
2022-07-30T22:58:26.524Z,17.01
2022-07-30T23:00:53.373Z,16.98
2022-07-30T23:03:19.696Z,16.95
2022-07-30T23:05:56.581Z,16.93
2022-07-30T23:08:30.456Z,16.91
2022-07-30T23:10:57.442Z,16.89
2022-07-30T23:12:32.684Z,17.62
2022-07-30T23:13:23.758Z,16.87
2022-07-30T23:15:50.062Z,16.84
2022-07-30T23:18:16.383Z,16.79
2022-07-30T23:20:42.787Z,16.76
2022-07-30T23:23:09.145Z,16.74
2022-07-30T23:25:39.013Z,16.71
2022-07-30T23:28:05.772Z,16.67
2022-07-30T23:30:34.133Z,16.66
2022-07-30T23:33:00.907Z,16.61
2022-07-30T23:35:27.309Z,16.58
2022-07-30T23:37:53.628Z,16.57
2022-07-30T23:40:20.005Z,16.55
2022-07-30T23:42:47.334Z,16.52
2022-07-30T23:45:13.983Z,16.50
2022-07-30T23:47:51.268Z,16.49
2022-07-30T23:50:26.635Z,16.45
2022-07-30T23:52:52.985Z,16.43
2022-07-30T23:55:19.333Z,16.41
2022-07-30T23:57:45.649Z,16.41
